Dalkey, Ireland

1:52 PM IST on August 29, 2015 (GMT +0100)
Blackrock, Co. Dublin | | Change Station
CLOSE
Current Station
Personal Weather Station
Location: Dublin, LEINSTER
Elevation: 131 ft
Nearby Weather Stations

Elev 131 ft 53.30 °N, 6.18 °W | Updated 50 seconds ago

Overcast
Overcast
66.7 °F
Feels Like 66.7 °F
N
6.9
Wind Variable Wind from West
Gusts 6.9 mph

Today
High -- | Low -- °F
--% Chance of Precip.
Yesterday
High -- | Low -- °F
Precip. -- in
6:28 AM 8:21 PM
Full, 100% visible
Pressure 29.98 in
Visibility 6.2 miles
Clouds Scattered Clouds 1800 ft
Mostly Cloudy 4000 ft
Dew Point 54 °F
Humidity 64%
Rainfall 0.00 in
Snow Depth Not available.
UV 3 out of 12
Pollen Not available.
Air Quality Not available.
Flu Activity Not available.
METAR EIDW 291230Z 28010KT 9999 -SHRA SCT018CB BKN040 15/12 Q1015 NOSIG
Pressure 29.98 in
Visibility 6.2 miles
Clouds Scattered Clouds 1800 ft
Mostly Cloudy 4000 ft
Dew Point 54 °F
Humidity 64%
Rainfall 0.00 in
Snow Depth Not available.
UV 3 out of 12
Pollen Not available.
Air Quality Not available.
Flu Activity Not available.
METAR EIDW 291230Z 28010KT 9999 -SHRA SCT018CB BKN040 15/12 Q1015 NOSIG

10-Day Weather Forecast

×

Almanac

Astronomy

Aug. 29, 2015 Rise Set
Actual Time
Civil Twilight
Nautical Twilight
Astronomical Twilight
Moon
Length of Visible Light
Length of Day
Tomorrow will be .
, % of the Moon is Illuminated

Today's Extremes

Country Highs Country Lows

Community

WunderPhotos

Upload Photos

1,850,677 photos uploaded!

WunderBlogs® & News

Nearby

Air Quality

  Air Quality AQ Index Pollutant
Not available.

Snow Depth

Station Depth Elevation

Earthquake Activity

City Distance Mag. Time & Date
Minimum magnitude displayed is 2.5.

Coastal Water Temperatures

Place Temperature

Stations

Nearby Weather Stations

Station Location Temp. Windchill Dew Point Humidity Wind Precip. Elev Updated Type